Time;durP1;ratioP1;P1;durP2;ratioP2;P2;SDS_P1;SDS_P2;PMS_P1;PMS_P2;Temp;Humidity;BMP_temperature;BMP_pressure;BME280_temperature;BME280_humidity;BME280_pressure;Samples;Min_cycle;Max_cycle;Signal;HPM_P1;HPM_P2
2021/12/10 00:01:31;;;;;;;;;;;19.00;37.80;;;;;;5156995;27;20422;-51
2021/12/10 00:03:58;;;;;;;;;;;19.00;37.80;;;;;;5157204;27;19990;-53
2021/12/10 00:06:31;;;;;;;;;;;19.00;37.80;;;;;;5156718;27;20002;-54
2021/12/10 00:09:00;;;;;;;;;;;19.00;37.80;;;;;;5156722;27;19911;-51
2021/12/10 00:11:31;;;;;;;;;;;19.00;37.80;;;;;;5138245;27;19947;-52
2021/12/10 00:13:57;;;;;;;;;;;19.00;37.80;;;;;;5156623;27;20276;-50
2021/12/10 00:16:22;;;;;;;;;;;19.00;37.80;;;;;;5156925;27;19907;-49
2021/12/10 00:18:55;;;;;;;;;;;19.00;37.80;;;;;;5156638;27;19907;-50
2021/12/10 00:21:29;;;;;;;;;;;19.00;37.80;;;;;;5156858;27;19946;-50
2021/12/10 00:23:56;;;;;;;;;;;19.00;37.80;;;;;;5156695;27;19971;-50
2021/12/10 00:26:22;;;;;;;;;;;19.00;37.80;;;;;;5156627;27;19907;-55
2021/12/10 00:28:48;;;;;;;;;;;19.00;37.80;;;;;;5156459;27;20048;-54
2021/12/10 00:33:59;;;;;;;;;;;19.00;37.80;;;;;;5156346;27;20323;-50
2021/12/10 00:36:25;;;;;;;;;;;19.00;37.80;;;;;;5156569;27;20274;-51
2021/12/10 00:38:51;;;;;;;;;;;19.00;37.80;;;;;;5156213;27;19907;-50
2021/12/10 00:41:17;;;;;;;;;;;19.00;37.80;;;;;;5156732;27;19907;-49
2021/12/10 00:43:42;;;;;;;;;;;19.00;37.80;;;;;;5156119;27;19907;-51
2021/12/10 00:46:08;;;;;;;;;;;19.00;37.80;;;;;;5156367;27;19907;-49
2021/12/10 00:48:34;;;;;;;;;;;19.00;37.80;;;;;;5156011;27;19917;-51
2021/12/10 00:51:00;;;;;;;;;;;19.00;37.80;;;;;;5156184;27;19915;-50
2021/12/10 00:53:25;;;;;;;;;;;19.00;37.80;;;;;;5156143;27;20315;-50
2021/12/10 00:55:53;;;;;;;;;;;18.90;37.80;;;;;;5156014;27;19932;-50
2021/12/10 00:58:19;;;;;;;;;;;19.00;37.80;;;;;;5155591;27;19913;-52
2021/12/10 01:00:46;;;;;;;;;;;18.90;37.80;;;;;;5155689;27;19915;-51
2021/12/10 01:03:13;;;;;;;;;;;18.90;37.80;;;;;;5155289;27;20366;-53
2021/12/10 01:05:42;;;;;;;;;;;18.90;37.80;;;;;;5155758;27;20415;-49
2021/12/10 01:08:08;;;;;;;;;;;18.90;37.80;;;;;;5155826;27;19907;-49
2021/12/10 01:10:37;;;;;;;;;;;18.90;37.80;;;;;;5155591;27;19918;-51
2021/12/10 01:13:05;;;;;;;;;;;18.90;37.80;;;;;;5155644;27;19915;-50
2021/12/10 01:15:50;;;;;;;;;;;18.90;37.80;;;;;;5155804;27;19956;-51
2021/12/10 01:24:16;;;;;;;;;;;18.90;37.80;;;;;;5091725;28;19934;-49
2021/12/10 01:29:09;;;;;;;;;;;18.90;37.80;;;;;;5155383;27;20018;-54
2021/12/10 01:31:35;;;;;;;;;;;18.90;37.70;;;;;;5155245;27;19918;-53
2021/12/10 01:34:00;;;;;;;;;;;18.90;37.70;;;;;;5155592;27;19911;-54
2021/12/10 01:36:26;;;;;;;;;;;18.90;37.70;;;;;;5155611;27;19907;-51
2021/12/10 01:38:53;;;;;;;;;;;18.90;37.70;;;;;;5155460;27;19968;-49
2021/12/10 01:41:20;;;;;;;;;;;18.90;37.70;;;;;;5155542;27;19948;-53
2021/12/10 01:43:47;;;;;;;;;;;18.90;37.70;;;;;;5155148;27;20285;-49
2021/12/10 01:46:18;;;;;;;;;;;18.90;37.70;;;;;;5155128;27;20005;-51
2021/12/10 01:48:46;;;;;;;;;;;18.80;37.70;;;;;;5155354;27;20003;-52
2021/12/10 01:51:13;;;;;;;;;;;18.90;37.80;;;;;;5155211;27;19922;-49
2021/12/10 01:53:40;;;;;;;;;;;18.80;37.70;;;;;;5154961;27;20341;-49
2021/12/10 01:56:17;;;;;;;;;;;18.80;37.70;;;;;;5155136;27;20010;-50
2021/12/10 01:58:45;;;;;;;;;;;18.80;37.70;;;;;;5154809;27;19912;-51
2021/12/10 02:01:13;;;;;;;;;;;18.80;37.70;;;;;;5154885;27;20036;-54
2021/12/10 02:03:40;;;;;;;;;;;18.80;37.80;;;;;;5155162;27;19907;-50
2021/12/10 02:06:06;;;;;;;;;;;18.80;37.70;;;;;;5154906;27;20337;-54
2021/12/10 02:08:31;;;;;;;;;;;18.80;37.70;;;;;;5155070;27;19950;-54
2021/12/10 02:10:57;;;;;;;;;;;18.80;37.70;;;;;;5155029;27;19954;-50
2021/12/10 02:13:23;;;;;;;;;;;18.80;37.70;;;;;;5155052;27;20342;-49
2021/12/10 02:15:48;;;;;;;;;;;18.80;37.70;;;;;;5155755;27;19908;-50
2021/12/10 02:18:14;;;;;;;;;;;18.80;37.70;;;;;;5159240;27;19927;-52
2021/12/10 02:21:02;;;;;;;;;;;18.80;37.70;;;;;;5159060;27;20253;-53
2021/12/10 02:23:32;;;;;;;;;;;18.80;37.80;;;;;;5157331;27;20312;-52
2021/12/10 02:26:01;;;;;;;;;;;18.80;37.70;;;;;;5159209;27;19990;-50
2021/12/10 02:28:26;;;;;;;;;;;18.80;37.70;;;;;;5159112;27;19907;-52
2021/12/10 02:30:54;;;;;;;;;;;18.80;37.70;;;;;;5158681;27;19911;-51
2021/12/10 02:33:19;;;;;;;;;;;18.80;37.70;;;;;;5158656;27;20059;-52
2021/12/10 02:35:45;;;;;;;;;;;18.80;37.70;;;;;;5158617;27;19914;-53
2021/12/10 02:38:11;;;;;;;;;;;18.80;37.70;;;;;;5158662;27;19907;-55
2021/12/10 02:40:37;;;;;;;;;;;18.80;37.70;;;;;;5158843;27;19930;-49
2021/12/10 02:43:06;;;;;;;;;;;18.80;37.70;;;;;;5158539;27;19993;-49
2021/12/10 02:45:32;;;;;;;;;;;18.80;37.70;;;;;;5158380;27;19937;-52
2021/12/10 02:47:58;;;;;;;;;;;18.80;37.70;;;;;;5158480;27;20362;-50
2021/12/10 02:50:25;;;;;;;;;;;18.80;37.80;;;;;;5158565;27;19911;-54
2021/12/10 02:52:51;;;;;;;;;;;18.70;37.80;;;;;;5158475;27;19958;-50
2021/12/10 02:55:17;;;;;;;;;;;18.70;37.70;;;;;;5158487;27;19991;-51
2021/12/10 02:57:43;;;;;;;;;;;18.70;37.70;;;;;;5158250;27;19907;-50
2021/12/10 03:00:10;;;;;;;;;;;18.80;37.70;;;;;;5158034;27;19925;-52
2021/12/10 03:02:36;;;;;;;;;;;18.70;37.70;;;;;;5158134;27;20037;-51
2021/12/10 03:05:03;;;;;;;;;;;18.70;37.70;;;;;;5158114;27;20377;-54
2021/12/10 03:07:30;;;;;;;;;;;18.70;37.70;;;;;;5157987;27;19907;-50
2021/12/10 03:09:55;;;;;;;;;;;18.70;37.70;;;;;;5158013;27;19907;-50
2021/12/10 03:12:21;;;;;;;;;;;18.70;37.70;;;;;;5158129;27;19922;-49
2021/12/10 03:14:50;;;;;;;;;;;18.70;37.70;;;;;;5157968;27;19907;-50
2021/12/10 03:17:18;;;;;;;;;;;18.70;37.70;;;;;;5158084;27;19907;-53
2021/12/10 03:19:43;;;;;;;;;;;18.70;37.70;;;;;;5157884;27;19914;-50
2021/12/10 03:22:09;;;;;;;;;;;18.70;37.70;;;;;;5157742;27;19907;-54
2021/12/10 03:24:34;;;;;;;;;;;18.70;37.70;;;;;;5158002;27;20278;-49
2021/12/10 03:27:03;;;;;;;;;;;18.70;37.70;;;;;;5157433;27;20002;-50
2021/12/10 03:29:29;;;;;;;;;;;18.70;37.60;;;;;;5157971;27;19939;-50
2021/12/10 03:31:57;;;;;;;;;;;18.70;37.60;;;;;;5157586;27;19919;-50
2021/12/10 03:34:23;;;;;;;;;;;18.70;37.60;;;;;;5157370;27;20358;-51
2021/12/10 03:36:51;;;;;;;;;;;18.70;37.70;;;;;;5157402;27;19911;-55
2021/12/10 03:39:18;;;;;;;;;;;18.70;37.60;;;;;;5157589;27;19907;-53
2021/12/10 03:41:44;;;;;;;;;;;18.70;37.60;;;;;;5157513;27;20273;-51
2021/12/10 03:44:09;;;;;;;;;;;18.70;37.60;;;;;;5157641;27;19954;-52
2021/12/10 03:46:35;;;;;;;;;;;18.60;37.60;;;;;;5157392;27;19911;-49
2021/12/10 03:49:03;;;;;;;;;;;18.70;37.60;;;;;;5157165;27;19908;-50
2021/12/10 03:51:29;;;;;;;;;;;18.70;37.60;;;;;;5157055;27;20374;-49
2021/12/10 03:53:55;;;;;;;;;;;18.60;37.60;;;;;;5157366;27;19918;-55
2021/12/10 03:56:22;;;;;;;;;;;18.60;37.60;;;;;;5157256;27;19907;-53
2021/12/10 03:58:48;;;;;;;;;;;18.60;37.60;;;;;;5156766;27;19915;-49
2021/12/10 04:01:15;;;;;;;;;;;18.60;37.60;;;;;;5157136;27;19990;-50
2021/12/10 04:03:41;;;;;;;;;;;18.60;37.60;;;;;;5156748;27;19945;-49
2021/12/10 04:06:07;;;;;;;;;;;18.60;37.50;;;;;;5157202;27;19989;-53
2021/12/10 04:08:33;;;;;;;;;;;18.60;37.60;;;;;;5157174;27;20365;-52
2021/12/10 04:10:59;;;;;;;;;;;18.60;37.50;;;;;;5156862;27;19915;-49
2021/12/10 04:13:24;;;;;;;;;;;18.60;37.50;;;;;;5157115;27;19919;-49
2021/12/10 04:15:50;;;;;;;;;;;18.60;37.50;;;;;;5156727;27;20374;-50
2021/12/10 04:18:15;;;;;;;;;;;18.60;37.50;;;;;;5156847;27;19929;-51
2021/12/10 04:20:41;;;;;;;;;;;18.60;37.50;;;;;;5156902;27;19911;-54
2021/12/10 04:23:09;;;;;;;;;;;18.60;37.50;;;;;;5156590;27;20381;-54
2021/12/10 04:25:36;;;;;;;;;;;18.60;37.50;;;;;;5156391;27;20272;-54
2021/12/10 04:28:03;;;;;;;;;;;18.60;37.50;;;;;;5156820;27;19907;-53
2021/12/10 04:30:35;;;;;;;;;;;18.60;37.50;;;;;;5156472;27;20418;-51
2021/12/10 04:33:02;;;;;;;;;;;18.60;37.40;;;;;;5156629;27;19950;-49
2021/12/10 04:35:27;;;;;;;;;;;18.60;37.50;;;;;;5156397;27;19914;-49
2021/12/10 04:37:53;;;;;;;;;;;18.60;37.40;;;;;;5156168;27;19907;-50
2021/12/10 04:40:21;;;;;;;;;;;18.60;37.40;;;;;;5156186;27;19951;-49
2021/12/10 04:42:47;;;;;;;;;;;18.50;37.40;;;;;;5156182;27;20417;-49
2021/12/10 04:45:14;;;;;;;;;;;18.60;37.40;;;;;;5156139;27;19998;-49
2021/12/10 04:47:40;;;;;;;;;;;18.60;37.40;;;;;;5156070;27;19998;-50
2021/12/10 04:50:06;;;;;;;;;;;18.50;37.40;;;;;;5156080;27;20318;-49
2021/12/10 04:52:34;;;;;;;;;;;18.50;37.40;;;;;;5155796;27;19926;-51
2021/12/10 04:54:59;;;;;;;;;;;18.50;37.50;;;;;;5156064;27;19911;-52
2021/12/10 04:57:25;;;;;;;;;;;18.50;37.40;;;;;;5155854;27;19914;-51
2021/12/10 04:59:50;;;;;;;;;;;18.60;37.40;;;;;;5155626;27;19926;-50
2021/12/10 05:02:16;;;;;;;;;;;18.50;37.40;;;;;;5155860;27;19930;-49
2021/12/10 05:04:43;;;;;;;;;;;18.60;37.40;;;;;;5156011;27;19997;-50
2021/12/10 05:07:11;;;;;;;;;;;18.50;37.40;;;;;;5155864;27;19959;-51
2021/12/10 05:09:36;;;;;;;;;;;18.50;37.40;;;;;;5155915;27;19906;-52
2021/12/10 05:12:02;;;;;;;;;;;18.50;37.40;;;;;;5155503;27;20434;-52
2021/12/10 05:14:28;;;;;;;;;;;18.50;37.30;;;;;;5155828;27;20011;-49
2021/12/10 05:16:54;;;;;;;;;;;18.60;37.40;;;;;;5155663;27;19942;-49
2021/12/10 05:19:21;;;;;;;;;;;18.50;37.30;;;;;;5155759;27;19914;-50
2021/12/10 05:21:48;;;;;;;;;;;18.60;37.30;;;;;;5155615;27;19911;-49
2021/12/10 05:24:14;;;;;;;;;;;18.60;37.30;;;;;;5155532;27;20286;-49
2021/12/10 05:26:39;;;;;;;;;;;18.60;37.30;;;;;;5156001;27;19928;-52
2021/12/10 05:29:06;;;;;;;;;;;18.70;37.20;;;;;;5155369;27;19907;-49
2021/12/10 05:31:31;;;;;;;;;;;18.70;37.20;;;;;;5155368;27;20281;-52
2021/12/10 05:33:57;;;;;;;;;;;18.70;37.10;;;;;;5155204;27;19907;-53
2021/12/10 05:36:22;;;;;;;;;;;18.70;37.20;;;;;;5155176;27;19914;-49
2021/12/10 05:38:48;;;;;;;;;;;18.70;37.10;;;;;;5155329;27;19998;-50
2021/12/10 05:41:13;;;;;;;;;;;18.80;37.10;;;;;;5155174;27;20347;-50
2021/12/10 05:43:41;;;;;;;;;;;18.80;37.10;;;;;;5155086;27;19907;-49
2021/12/10 05:46:07;;;;;;;;;;;18.80;37.10;;;;;;5155338;27;19918;-52
2021/12/10 05:48:32;;;;;;;;;;;18.80;37.10;;;;;;5155094;27;19917;-49
2021/12/10 05:50:58;;;;;;;;;;;18.80;37.00;;;;;;5155023;27;19951;-50
2021/12/10 05:53:23;;;;;;;;;;;18.80;37.00;;;;;;5155039;27;19932;-50
2021/12/10 05:55:49;;;;;;;;;;;18.80;37.00;;;;;;5154990;27;19907;-51
2021/12/10 05:58:15;;;;;;;;;;;18.90;37.00;;;;;;5154885;27;19915;-49
2021/12/10 06:00:43;;;;;;;;;;;18.90;36.90;;;;;;5155134;27;20270;-49
2021/12/10 06:03:09;;;;;;;;;;;18.90;36.90;;;;;;5155246;27;20287;-49
2021/12/10 06:05:34;;;;;;;;;;;18.90;36.90;;;;;;5154911;27;19963;-49
2021/12/10 06:08:00;;;;;;;;;;;18.90;36.90;;;;;;5154951;27;19998;-49
2021/12/10 06:10:26;;;;;;;;;;;18.90;36.90;;;;;;5154850;27;19958;-49
2021/12/10 06:12:51;;;;;;;;;;;18.90;36.90;;;;;;5154736;27;19916;-51
2021/12/10 06:15:18;;;;;;;;;;;18.90;36.90;;;;;;5155019;27;19914;-49
2021/12/10 06:17:44;;;;;;;;;;;18.90;36.80;;;;;;5154693;27;19907;-50
2021/12/10 06:20:11;;;;;;;;;;;18.90;36.80;;;;;;5154919;27;19907;-52
2021/12/10 06:22:36;;;;;;;;;;;19.00;36.90;;;;;;5154308;27;20364;-55
2021/12/10 06:25:03;;;;;;;;;;;19.00;36.90;;;;;;5154799;27;19908;-52
2021/12/10 06:27:28;;;;;;;;;;;18.90;36.80;;;;;;5154641;27;19993;-52
2021/12/10 06:29:54;;;;;;;;;;;19.00;36.70;;;;;;5154668;27;20373;-52
2021/12/10 06:32:19;;;;;;;;;;;19.00;36.80;;;;;;5154741;27;19915;-51
2021/12/10 06:34:45;;;;;;;;;;;19.00;36.70;;;;;;5154633;27;19907;-50
2021/12/10 06:37:10;;;;;;;;;;;19.00;36.80;;;;;;5154879;27;19907;-52
2021/12/10 06:39:36;;;;;;;;;;;19.00;36.80;;;;;;5154881;27;20244;-52
2021/12/10 06:42:03;;;;;;;;;;;19.00;36.80;;;;;;5154857;27;19998;-53
2021/12/10 06:44:28;;;;;;;;;;;19.00;36.70;;;;;;5154317;27;19907;-49
2021/12/10 06:46:54;;;;;;;;;;;19.00;36.70;;;;;;5154483;27;20258;-51
2021/12/10 06:49:20;;;;;;;;;;;19.00;36.80;;;;;;5154607;27;20373;-51
2021/12/10 06:51:45;;;;;;;;;;;19.00;36.70;;;;;;5154649;27;19934;-51
2021/12/10 06:54:11;;;;;;;;;;;19.10;36.70;;;;;;5154423;27;20370;-53
2021/12/10 06:56:37;;;;;;;;;;;19.00;36.70;;;;;;5154178;27;20292;-53
2021/12/10 06:59:04;;;;;;;;;;;19.00;36.70;;;;;;5154227;27;19926;-54
2021/12/10 07:01:31;;;;;;;;;;;19.00;36.70;;;;;;5154707;27;20393;-50
2021/12/10 07:03:57;;;;;;;;;;;19.10;36.70;;;;;;5158176;27;20315;-54
2021/12/10 07:06:24;;;;;;;;;;;19.00;36.70;;;;;;5158239;27;19907;-55
2021/12/10 07:08:50;;;;;;;;;;;19.10;36.70;;;;;;5157856;27;20299;-55
2021/12/10 07:11:16;;;;;;;;;;;19.10;36.70;;;;;;5157794;27;19922;-52
2021/12/10 07:13:44;;;;;;;;;;;19.00;36.60;;;;;;5158354;27;19959;-51
2021/12/10 07:16:10;;;;;;;;;;;19.00;36.60;;;;;;5157864;27;19907;-50
2021/12/10 07:18:36;;;;;;;;;;;19.10;36.60;;;;;;5157920;27;20319;-54
2021/12/10 07:21:03;;;;;;;;;;;19.10;36.60;;;;;;5157615;27;19990;-54
2021/12/10 07:23:28;;;;;;;;;;;19.00;36.70;;;;;;5157599;27;20102;-52
2021/12/10 07:25:54;;;;;;;;;;;19.10;36.60;;;;;;5157575;27;20349;-53
2021/12/10 07:28:19;;;;;;;;;;;19.10;36.60;;;;;;5157598;27;19911;-51
2021/12/10 07:30:47;;;;;;;;;;;19.10;36.50;;;;;;5157829;27;20353;-54
2021/12/10 07:33:12;;;;;;;;;;;19.10;36.60;;;;;;5157624;27;19911;-49
2021/12/10 07:35:38;;;;;;;;;;;19.10;36.60;;;;;;5157683;27;20351;-51
2021/12/10 07:38:04;;;;;;;;;;;19.10;36.60;;;;;;5157519;27;19914;-53
2021/12/10 07:40:31;;;;;;;;;;;19.10;36.60;;;;;;5157199;27;19907;-54
2021/12/10 07:42:57;;;;;;;;;;;19.10;36.70;;;;;;5157182;27;20397;-52
2021/12/10 07:45:23;;;;;;;;;;;19.10;36.70;;;;;;5157384;27;19907;-55
2021/12/10 07:47:52;;;;;;;;;;;19.10;36.60;;;;;;5157366;27;19967;-53
2021/12/10 07:50:20;;;;;;;;;;;19.10;36.50;;;;;;5157123;27;19907;-55
2021/12/10 07:52:46;;;;;;;;;;;19.10;36.50;;;;;;5156885;27;19915;-52
2021/12/10 07:55:14;;;;;;;;;;;19.10;36.50;;;;;;5157299;27;19908;-56
2021/12/10 07:57:40;;;;;;;;;;;19.10;36.50;;;;;;5157274;27;19908;-51
2021/12/10 08:00:07;;;;;;;;;;;19.10;36.50;;;;;;5156847;27;19919;-54
2021/12/10 08:02:33;;;;;;;;;;;19.20;36.40;;;;;;5156864;27;19911;-52
2021/12/10 08:04:58;;;;;;;;;;;19.10;36.60;;;;;;5157069;27;19914;-51
2021/12/10 08:07:25;;;;;;;;;;;19.20;36.50;;;;;;5156926;27;19942;-50
2021/12/10 08:09:51;;;;;;;;;;;19.20;36.50;;;;;;5157126;27;19907;-53
2021/12/10 08:12:17;;;;;;;;;;;19.10;36.50;;;;;;5157049;27;19922;-50
2021/12/10 08:14:42;;;;;;;;;;;19.20;36.50;;;;;;5155478;27;19955;-54
2021/12/10 08:17:08;;;;;;;;;;;19.20;36.50;;;;;;5156573;27;19907;-56
2021/12/10 08:19:33;;;;;;;;;;;19.20;36.50;;;;;;5156880;27;19908;-55
2021/12/10 08:21:59;;;;;;;;;;;19.20;36.50;;;;;;5156551;27;19907;-54
2021/12/10 08:24:24;;;;;;;;;;;19.20;36.40;;;;;;5156734;27;20280;-54
2021/12/10 08:26:50;;;;;;;;;;;19.20;36.50;;;;;;5156695;27;19907;-54
2021/12/10 08:29:19;;;;;;;;;;;19.20;36.50;;;;;;5156458;27;19911;-54
2021/12/10 08:31:45;;;;;;;;;;;19.20;36.40;;;;;;5156569;27;19923;-50
2021/12/10 08:34:10;;;;;;;;;;;19.20;36.50;;;;;;5156427;27;19908;-51
2021/12/10 08:36:36;;;;;;;;;;;19.20;36.40;;;;;;5156464;27;20307;-55
2021/12/10 08:39:03;;;;;;;;;;;19.20;36.50;;;;;;5156355;27;20255;-55
2021/12/10 08:41:31;;;;;;;;;;;19.20;36.40;;;;;;5137633;27;19962;-54
2021/12/10 08:43:57;;;;;;;;;;;19.30;36.60;;;;;;5156294;27;19914;-53
2021/12/10 08:46:23;;;;;;;;;;;19.20;36.30;;;;;;5156145;27;19907;-55
2021/12/10 08:48:49;;;;;;;;;;;19.30;36.40;;;;;;5155527;27;20366;-54
2021/12/10 08:51:21;;;;;;;;;;;19.30;36.40;;;;;;5155553;27;19915;-54
2021/12/10 08:53:46;;;;;;;;;;;19.30;36.40;;;;;;5156173;27;20136;-56
2021/12/10 08:56:12;;;;;;;;;;;19.30;36.40;;;;;;5155862;27;19968;-55
2021/12/10 08:58:37;;;;;;;;;;;19.30;36.40;;;;;;5155478;27;19958;-54
2021/12/10 09:01:08;;;;;;;;;;;19.30;36.40;;;;;;5155855;27;19914;-52
2021/12/10 09:03:34;;;;;;;;;;;19.30;36.40;;;;;;5136835;27;19934;-50
2021/12/10 09:06:01;;;;;;;;;;;19.30;36.30;;;;;;5155306;27;20338;-50
2021/12/10 09:08:26;;;;;;;;;;;19.30;36.40;;;;;;5155622;27;19914;-51
2021/12/10 09:10:52;;;;;;;;;;;19.30;36.50;;;;;;5155606;27;19908;-55
2021/12/10 09:13:20;;;;;;;;;;;19.30;36.40;;;;;;5155921;27;19917;-56
2021/12/10 09:15:48;;;;;;;;;;;19.30;36.40;;;;;;5155467;27;20169;-50
2021/12/10 09:18:14;;;;;;;;;;;19.30;36.40;;;;;;5155356;27;19971;-54
2021/12/10 09:20:41;;;;;;;;;;;19.30;36.40;;;;;;5155404;27;19915;-55
2021/12/10 09:23:07;;;;;;;;;;;19.30;36.40;;;;;;5155537;27;19949;-50
2021/12/10 09:25:34;;;;;;;;;;;19.30;36.30;;;;;;5155098;27;19914;-53
2021/12/10 09:27:59;;;;;;;;;;;19.40;36.40;;;;;;5155275;27;19962;-52
2021/12/10 09:30:26;;;;;;;;;;;19.30;36.40;;;;;;5155169;27;19911;-52
2021/12/10 09:32:52;;;;;;;;;;;19.30;36.40;;;;;;5155357;27;20042;-50
2021/12/10 09:35:19;;;;;;;;;;;19.40;36.40;;;;;;5155330;27;19994;-50
2021/12/10 09:37:45;;;;;;;;;;;19.40;36.40;;;;;;5155327;27;19918;-52
2021/12/10 09:40:13;;;;;;;;;;;19.40;36.40;;;;;;5155398;27;19914;-54
2021/12/10 09:42:42;;;;;;;;;;;19.40;36.40;;;;;;5155130;27;19907;-54
2021/12/10 09:45:10;;;;;;;;;;;19.40;36.40;;;;;;5154958;27;19907;-51
2021/12/10 09:47:36;;;;;;;;;;;19.40;36.40;;;;;;5154610;27;19908;-49
2021/12/10 09:50:03;;;;;;;;;;;19.40;36.50;;;;;;5155037;27;20358;-51
2021/12/10 09:52:28;;;;;;;;;;;19.40;36.40;;;;;;5155107;27;19915;-51
2021/12/10 09:54:54;;;;;;;;;;;19.40;36.40;;;;;;5154881;27;20009;-49
2021/12/10 09:57:24;;;;;;;;;;;19.40;36.40;;;;;;5155186;27;19915;-50
2021/12/10 09:59:52;;;;;;;;;;;19.40;36.40;;;;;;5154717;27;19927;-50
2021/12/10 10:02:19;;;;;;;;;;;19.40;36.40;;;;;;5155023;27;19914;-51
2021/12/10 10:04:49;;;;;;;;;;;19.40;36.40;;;;;;5154897;27;19926;-50
2021/12/10 10:07:16;;;;;;;;;;;19.40;36.30;;;;;;5155087;27;19911;-51
2021/12/10 10:09:46;;;;;;;;;;;19.40;36.40;;;;;;5154803;27;20414;-50
2021/12/10 10:12:22;;;;;;;;;;;19.40;36.40;;;;;;5154683;27;19959;-51
2021/12/10 10:14:48;;;;;;;;;;;19.40;36.50;;;;;;5154902;27;19907;-50
2021/12/10 10:17:15;;;;;;;;;;;19.40;36.40;;;;;;5154614;27;20047;-51
2021/12/10 10:19:41;;;;;;;;;;;19.50;36.40;;;;;;5154633;27;20285;-52
2021/12/10 10:22:09;;;;;;;;;;;19.40;36.40;;;;;;5154557;27;19907;-52
2021/12/10 10:24:35;;;;;;;;;;;19.40;36.40;;;;;;5154563;27;19911;-55
2021/12/10 10:27:03;;;;;;;;;;;19.40;36.40;;;;;;5154474;27;19930;-51
2021/12/10 10:29:32;;;;;;;;;;;19.40;36.40;;;;;;5154551;27;19958;-51
2021/12/10 10:32:02;;;;;;;;;;;19.50;36.40;;;;;;5154554;27;19915;-50
2021/12/10 10:34:28;;;;;;;;;;;19.40;36.30;;;;;;5154361;27;19907;-52
2021/12/10 10:36:54;;;;;;;;;;;19.50;36.40;;;;;;5136900;27;19914;-51
2021/12/10 10:39:23;;;;;;;;;;;19.50;36.40;;;;;;5158074;27;19907;-53
2021/12/10 10:41:51;;;;;;;;;;;19.40;36.40;;;;;;5158561;27;19907;-51
2021/12/10 10:44:17;;;;;;;;;;;19.40;36.30;;;;;;5158392;27;19954;-50
2021/12/10 10:46:43;;;;;;;;;;;19.50;36.50;;;;;;5158761;27;19907;-52
2021/12/10 10:49:09;;;;;;;;;;;19.50;36.40;;;;;;5158269;27;20262;-55
2021/12/10 10:51:40;;;;;;;;;;;19.50;36.40;;;;;;5158092;27;19960;-53
2021/12/10 10:54:07;;;;;;;;;;;19.50;36.30;;;;;;5157911;27;19907;-50
2021/12/10 10:56:34;;;;;;;;;;;19.50;36.40;;;;;;5158083;27;20522;-54
2021/12/10 10:59:04;;;;;;;;;;;19.50;36.30;;;;;;5158268;27;19919;-53
2021/12/10 11:01:39;;;;;;;;;;;19.50;36.40;;;;;;5158016;27;19907;-52
2021/12/10 11:04:12;;;;;;;;;;;19.50;36.40;;;;;;5158421;27;20251;-53
2021/12/10 11:06:41;;;;;;;;;;;19.50;36.20;;;;;;5157604;27;21267;-51
2021/12/10 11:09:15;;;;;;;;;;;19.50;36.30;;;;;;5157980;27;19914;-52
2021/12/10 11:11:49;;;;;;;;;;;19.50;36.30;;;;;;5158037;27;19918;-54
2021/12/10 11:14:18;;;;;;;;;;;19.50;36.30;;;;;;5157905;27;20259;-52
2021/12/10 11:16:45;;;;;;;;;;;19.50;36.20;;;;;;5157696;27;19907;-50
2021/12/10 11:19:13;;;;;;;;;;;19.50;36.30;;;;;;5157581;27;19907;-56
2021/12/10 11:21:41;;;;;;;;;;;19.50;36.30;;;;;;5157501;27;19915;-55
2021/12/10 11:24:10;;;;;;;;;;;19.50;36.30;;;;;;5157815;27;19907;-54
2021/12/10 11:26:43;;;;;;;;;;;19.50;36.20;;;;;;5157902;27;19911;-54
2021/12/10 11:29:25;;;;;;;;;;;19.50;36.20;;;;;;5157544;27;19907;-56
2021/12/10 11:32:01;;;;;;;;;;;19.50;36.20;;;;;;5157717;27;19915;-55
2021/12/10 11:34:45;;;;;;;;;;;19.50;36.30;;;;;;5157589;27;19915;-53
2021/12/10 11:37:11;;;;;;;;;;;19.50;36.20;;;;;;5157376;27;20358;-55
2021/12/10 11:39:55;;;;;;;;;;;19.50;36.20;;;;;;5157464;27;19961;-53
2021/12/10 11:42:32;;;;;;;;;;;19.50;36.20;;;;;;5157456;27;19943;-53
2021/12/10 11:47:43;;;;;;;;;;;19.50;36.20;;;;;;5157096;27;19949;-50
2021/12/10 11:50:16;;;;;;;;;;;19.50;36.30;;;;;;5138731;27;20262;-54
2021/12/10 11:52:41;;;;;;;;;;;19.50;36.30;;;;;;5157417;27;19915;-56
2021/12/10 11:55:09;;;;;;;;;;;19.50;36.30;;;;;;5157309;27;20261;-53
2021/12/10 11:57:39;;;;;;;;;;;19.50;36.30;;;;;;5156993;27;19930;-52
2021/12/10 12:00:14;;;;;;;;;;;19.50;36.20;;;;;;5156886;27;19930;-52
2021/12/10 12:02:48;;;;;;;;;;;19.50;36.20;;;;;;5157063;27;20006;-56
2021/12/10 12:05:15;;;;;;;;;;;19.50;36.30;;;;;;5156857;27;19907;-54
2021/12/10 12:07:41;;;;;;;;;;;19.50;36.10;;;;;;5157107;27;19930;-55
2021/12/10 12:10:14;;;;;;;;;;;19.50;36.00;;;;;;5157091;27;20342;-53
2021/12/10 12:12:45;;;;;;;;;;;19.50;36.20;;;;;;5156988;27;19919;-50
2021/12/10 12:15:21;;;;;;;;;;;19.50;36.20;;;;;;5156817;27;19907;-55
2021/12/10 12:17:48;;;;;;;;;;;19.50;36.00;;;;;;5157057;27;19930;-52
2021/12/10 12:20:24;;;;;;;;;;;19.50;36.20;;;;;;5156590;27;19929;-53
2021/12/10 12:25:39;;;;;;;;;;;19.50;36.00;;;;;;5157022;27;20386;-51
2021/12/10 12:28:07;;;;;;;;;;;19.50;36.20;;;;;;5156808;27;19911;-55
2021/12/10 12:30:32;;;;;;;;;;;19.50;36.20;;;;;;5156572;27;19911;-56
2021/12/10 12:32:58;;;;;;;;;;;19.50;36.00;;;;;;5156565;27;20311;-52
2021/12/10 12:35:29;;;;;;;;;;;19.50;36.10;;;;;;5156263;27;19910;-56
2021/12/10 12:38:15;;;;;;;;;;;19.50;36.20;;;;;;5156389;27;20367;-54
2021/12/10 12:40:44;;;;;;;;;;;19.50;36.10;;;;;;5156548;27;19907;-54
2021/12/10 12:43:10;;;;;;;;;;;19.50;36.20;;;;;;5156445;27;19952;-52
2021/12/10 12:45:37;;;;;;;;;;;19.50;36.20;;;;;;5156471;27;19908;-54
2021/12/10 12:48:03;;;;;;;;;;;19.60;36.20;;;;;;5156001;27;19907;-52
2021/12/10 12:50:30;;;;;;;;;;;19.50;36.20;;;;;;5156210;27;19914;-50
2021/12/10 12:52:59;;;;;;;;;;;19.50;36.20;;;;;;5156124;27;19975;-52
2021/12/10 12:55:32;;;;;;;;;;;19.50;36.20;;;;;;5155930;27;20366;-56
2021/12/10 12:57:58;;;;;;;;;;;19.50;36.00;;;;;;5156286;27;19952;-54
2021/12/10 13:00:26;;;;;;;;;;;19.50;36.10;;;;;;5155217;27;19919;-54
2021/12/10 13:02:54;;;;;;;;;;;19.50;36.10;;;;;;5156108;27;20267;-55
2021/12/10 13:05:29;;;;;;;;;;;19.50;36.10;;;;;;5155821;27;20362;-53
2021/12/10 13:08:03;;;;;;;;;;;19.50;36.10;;;;;;5155980;27;19908;-55
2021/12/10 13:10:29;;;;;;;;;;;19.50;36.10;;;;;;5155828;27;20040;-51
2021/12/10 13:13:08;;;;;;;;;;;19.50;36.10;;;;;;5155655;27;20021;-55
2021/12/10 13:15:33;;;;;;;;;;;19.50;36.10;;;;;;5155950;27;19913;-52
2021/12/10 13:18:01;;;;;;;;;;;19.50;36.00;;;;;;5155369;27;19907;-53
2021/12/10 13:20:31;;;;;;;;;;;19.50;36.10;;;;;;5155341;27;20029;-50
2021/12/10 13:23:03;;;;;;;;;;;19.50;36.10;;;;;;5155438;27;19907;-51
2021/12/10 13:25:30;;;;;;;;;;;19.50;36.00;;;;;;5155288;27;19953;-54
2021/12/10 13:28:00;;;;;;;;;;;19.50;35.90;;;;;;5155397;27;19907;-53
2021/12/10 13:30:35;;;;;;;;;;;19.50;36.10;;;;;;5155483;27;19911;-55
2021/12/10 13:33:01;;;;;;;;;;;19.50;36.00;;;;;;5155171;27;19915;-55
2021/12/10 13:35:28;;;;;;;;;;;19.50;36.00;;;;;;5155151;27;19915;-53
2021/12/10 13:37:54;;;;;;;;;;;19.50;36.10;;;;;;5155479;27;20001;-56
2021/12/10 13:40:21;;;;;;;;;;;19.50;36.00;;;;;;5155132;27;19953;-50
2021/12/10 13:42:47;;;;;;;;;;;19.50;36.00;;;;;;5155321;27;20010;-51
2021/12/10 13:45:15;;;;;;;;;;;19.50;36.00;;;;;;5155317;27;19907;-51
2021/12/10 13:47:50;;;;;;;;;;;19.50;36.00;;;;;;5155038;27;19914;-49
2021/12/10 13:50:17;;;;;;;;;;;19.50;36.00;;;;;;5154990;27;19918;-53
2021/12/10 13:52:48;;;;;;;;;;;19.50;36.10;;;;;;5154601;27;20282;-49
2021/12/10 13:55:20;;;;;;;;;;;19.50;35.90;;;;;;5154701;27;19993;-55
2021/12/10 13:58:05;;;;;;;;;;;19.50;36.00;;;;;;5154883;27;20281;-54
2021/12/10 14:00:31;;;;;;;;;;;19.50;36.00;;;;;;5154372;27;19919;-51
2021/12/10 14:02:56;;;;;;;;;;;19.50;36.00;;;;;;5154832;27;19908;-55
2021/12/10 14:05:21;;;;;;;;;;;19.50;36.00;;;;;;5154612;27;20273;-55
2021/12/10 14:07:49;;;;;;;;;;;19.50;36.00;;;;;;5154941;27;19932;-53
2021/12/10 14:10:31;;;;;;;;;;;19.50;36.00;;;;;;5155048;27;19983;-51
2021/12/10 14:12:59;;;;;;;;;;;19.50;36.00;;;;;;5159094;27;20354;-53
2021/12/10 14:15:49;;;;;;;;;;;19.50;35.90;;;;;;5158725;27;20278;-51
2021/12/10 14:18:20;;;;;;;;;;;19.60;36.00;;;;;;5158863;27;19952;-50
2021/12/10 14:20:46;;;;;;;;;;;19.50;36.00;;;;;;5158907;27;19918;-51
2021/12/10 14:23:17;;;;;;;;;;;19.50;36.00;;;;;;5158353;27;19907;-50
2021/12/10 14:25:50;;;;;;;;;;;19.50;36.00;;;;;;5158973;27;19982;-53
2021/12/10 14:28:17;;;;;;;;;;;19.50;36.00;;;;;;5158633;27;20387;-48
2021/12/10 14:30:44;;;;;;;;;;;19.50;36.00;;;;;;5158575;27;20255;-52
2021/12/10 14:33:31;;;;;;;;;;;19.50;35.90;;;;;;5158736;27;19922;-50
2021/12/10 14:36:09;;;;;;;;;;;19.50;35.90;;;;;;5158732;27;19907;-53